Time;durP1;ratioP1;P1;durP2;ratioP2;P2;SDS_P1;SDS_P2;PMS_P1;PMS_P2;Temp;Humidity;BMP_temperature;BMP_pressure;BME280_temperature;BME280_humidity;BME280_pressure;Samples;Min_cycle;Max_cycle;Signal;HPM_P1;HPM_P2
2022/05/22 00:02:10;;;;;;;0.83;0.50;;;;;;;;;;5107639;28;20240;-57
2022/05/22 00:04:57;;;;;;;0.83;0.83;;;;;;;;;;5111753;28;20204;-57
2022/05/22 00:07:46;;;;;;;0.70;0.70;;;;;;;;;;5110411;28;20299;-57
2022/05/22 00:10:33;;;;;;;0.70;0.70;;;;;;;;;;5111092;28;20299;-57
2022/05/22 00:13:20;;;;;;;0.77;0.77;;;;;;;;;;5112157;28;20292;-58
2022/05/22 00:19:13;;;;;;;0.63;0.63;;;;;;;;;;5100888;28;20205;-58
2022/05/22 00:22:02;;;;;;;0.70;0.70;;;;;;;;;;5105994;27;20290;-58
2022/05/22 00:24:50;;;;;;;0.70;0.70;;;;;;;;;;5110508;27;20796;-58
2022/05/22 00:27:37;;;;;;;1.47;0.80;;;;;;;;;;5114231;27;20213;-58
2022/05/22 00:30:24;;;;;;;0.63;0.63;;;;;;;;;;5116443;27;20280;-57
2022/05/22 00:33:11;;;;;;;0.73;0.73;;;;;;;;;;5114928;27;20758;-57
2022/05/22 00:35:58;;;;;;;0.70;0.70;;;;;;;;;;5108597;27;20272;-58
2022/05/22 00:38:45;;;;;;;0.63;0.63;;;;;;;;;;5110258;27;20829;-58
2022/05/22 00:41:34;;;;;;;0.70;0.70;;;;;;;;;;5109718;27;20680;-58
2022/05/22 00:44:22;;;;;;;0.60;0.60;;;;;;;;;;5107054;27;20717;-57
2022/05/22 00:47:09;;;;;;;0.60;0.60;;;;;;;;;;5109857;27;20372;-57
2022/05/22 00:50:00;;;;;;;1.37;0.70;;;;;;;;;;5109844;27;20261;-58
2022/05/22 00:52:50;;;;;;;0.80;0.80;;;;;;;;;;5109251;27;20731;-57
2022/05/22 00:55:37;;;;;;;0.50;0.50;;;;;;;;;;5104260;27;20213;-58
2022/05/22 00:58:28;;;;;;;0.80;0.80;;;;;;;;;;5104100;27;20280;-58
2022/05/22 01:01:15;;;;;;;0.53;0.53;;;;;;;;;;5111492;27;20290;-57
2022/05/22 01:04:04;;;;;;;0.80;0.80;;;;;;;;;;5112719;27;20259;-58
2022/05/22 01:06:52;;;;;;;0.40;0.40;;;;;;;;;;5109869;27;20255;-58
2022/05/22 01:09:39;;;;;;;0.60;0.60;;;;;;;;;;5113515;27;20214;-58
2022/05/22 01:12:26;;;;;;;1.20;0.83;;;;;;;;;;5109916;27;20269;-58
2022/05/22 01:15:15;;;;;;;0.80;0.80;;;;;;;;;;5112693;27;20289;-58
2022/05/22 01:18:02;;;;;;;0.90;0.90;;;;;;;;;;5113774;27;20293;-57
2022/05/22 01:20:51;;;;;;;0.67;0.67;;;;;;;;;;5108390;27;20849;-58
2022/05/22 01:23:39;;;;;;;0.70;0.70;;;;;;;;;;5109184;27;20761;-57
2022/05/22 01:26:28;;;;;;;0.70;0.70;;;;;;;;;;5108992;27;20627;-58
2022/05/22 01:29:15;;;;;;;0.73;0.73;;;;;;;;;;5106880;27;20210;-58
2022/05/22 01:32:04;;;;;;;0.60;0.60;;;;;;;;;;5110512;27;20239;-57
2022/05/22 01:34:51;;;;;;;0.80;0.80;;;;;;;;;;5115411;27;20676;-58
2022/05/22 01:37:38;;;;;;;1.30;0.73;;;;;;;;;;5114328;27;20266;-57
2022/05/22 01:40:26;;;;;;;0.80;0.80;;;;;;;;;;5112992;27;20595;-58
2022/05/22 01:43:14;;;;;;;0.70;0.70;;;;;;;;;;5108945;27;20225;-57
2022/05/22 01:46:02;;;;;;;0.70;0.60;;;;;;;;;;5110728;27;20252;-57
2022/05/22 01:48:49;;;;;;;0.67;0.60;;;;;;;;;;5114550;27;20201;-57
2022/05/22 01:51:40;;;;;;;1.13;0.80;;;;;;;;;;5115410;27;20345;-57
2022/05/22 01:54:27;;;;;;;0.90;0.90;;;;;;;;;;5114746;27;20258;-57
2022/05/22 01:57:15;;;;;;;0.67;0.67;;;;;;;;;;5110945;27;20307;-57
2022/05/22 02:00:04;;;;;;;0.70;0.70;;;;;;;;;;5115228;27;20289;-57
2022/05/22 02:02:51;;;;;;;1.17;0.87;;;;;;;;;;5116133;27;20678;-57
2022/05/22 02:05:38;;;;;;;1.00;0.90;;;;;;;;;;5113634;27;20284;-57
2022/05/22 02:08:24;;;;;;;0.97;0.90;;;;;;;;;;5113757;27;20289;-57
2022/05/22 02:11:11;;;;;;;0.70;0.70;;;;;;;;;;5119425;27;20201;-58
2022/05/22 02:13:59;;;;;;;0.90;0.87;;;;;;;;;;5113579;27;20284;-57
2022/05/22 02:16:46;;;;;;;1.10;1.00;;;;;;;;;;5115971;27;20257;-57
2022/05/22 02:19:33;;;;;;;0.70;0.70;;;;;;;;;;5115892;27;20693;-57
2022/05/22 02:22:20;;;;;;;0.97;0.93;;;;;;;;;;5111954;27;20334;-57
2022/05/22 02:25:08;;;;;;;1.00;1.00;;;;;;;;;;5111639;27;20966;-57
2022/05/22 02:27:55;;;;;;;0.80;0.80;;;;;;;;;;5112713;27;20201;-58
2022/05/22 02:30:46;;;;;;;0.80;0.80;;;;;;;;;;5113824;27;20309;-57
2022/05/22 02:33:34;;;;;;;0.80;0.80;;;;;;;;;;5110239;27;20210;-57
2022/05/22 02:36:22;;;;;;;1.17;1.00;;;;;;;;;;5115940;27;20241;-57
2022/05/22 02:39:09;;;;;;;0.93;0.93;;;;;;;;;;5118756;27;20218;-57
2022/05/22 02:42:02;;;;;;;1.20;1.10;;;;;;;;;;5115434;27;20239;-57
2022/05/22 02:44:49;;;;;;;0.90;0.90;;;;;;;;;;5115843;27;20315;-57
2022/05/22 02:47:38;;;;;;;0.80;0.80;;;;;;;;;;5115053;27;20261;-57
2022/05/22 02:50:27;;;;;;;1.03;1.03;;;;;;;;;;5116610;27;20221;-57
2022/05/22 02:53:14;;;;;;;0.93;0.93;;;;;;;;;;5116606;27;20268;-57
2022/05/22 02:56:08;;;;;;;1.80;0.90;;;;;;;;;;5113356;27;20208;-58
2022/05/22 02:58:55;;;;;;;0.93;0.93;;;;;;;;;;5113223;27;20202;-57
2022/05/22 03:01:42;;;;;;;1.33;1.10;;;;;;;;;;5115358;27;20211;-57
2022/05/22 03:04:31;;;;;;;1.20;1.00;;;;;;;;;;5114274;27;20280;-57
2022/05/22 03:07:19;;;;;;;0.80;0.80;;;;;;;;;;5112160;27;20638;-57
2022/05/22 03:10:09;;;;;;;0.90;0.90;;;;;;;;;;5113572;27;20274;-57
2022/05/22 03:12:56;;;;;;;1.00;1.00;;;;;;;;;;5112071;27;20288;-57
2022/05/22 03:15:43;;;;;;;1.10;1.10;;;;;;;;;;5113013;27;20203;-58
2022/05/22 03:18:30;;;;;;;1.50;1.10;;;;;;;;;;5116847;27;20272;-58
2022/05/22 03:21:18;;;;;;;1.23;1.13;;;;;;;;;;5110653;27;20295;-58
2022/05/22 03:24:06;;;;;;;0.90;0.90;;;;;;;;;;5112893;27;20265;-57
2022/05/22 03:26:53;;;;;;;1.07;1.07;;;;;;;;;;5114972;27;20339;-58
2022/05/22 03:29:41;;;;;;;1.03;1.03;;;;;;;;;;5115185;27;20733;-58
2022/05/22 03:32:28;;;;;;;1.60;0.90;;;;;;;;;;5113285;28;20301;-57
2022/05/22 03:35:15;;;;;;;0.90;0.90;;;;;;;;;;5114665;27;20284;-57
2022/05/22 03:38:05;;;;;;;1.13;1.10;;;;;;;;;;5112537;28;20297;-57
2022/05/22 03:40:52;;;;;;;0.97;0.87;;;;;;;;;;5118237;27;20294;-57
2022/05/22 03:43:38;;;;;;;0.90;0.90;;;;;;;;;;5114624;28;20287;-57
2022/05/22 03:46:25;;;;;;;0.87;0.87;;;;;;;;;;5112660;28;20607;-58
2022/05/22 03:49:12;;;;;;;0.97;0.97;;;;;;;;;;5116351;28;20287;-58
2022/05/22 03:52:00;;;;;;;1.10;1.00;;;;;;;;;;5118001;28;20690;-57
2022/05/22 03:54:48;;;;;;;1.17;1.17;;;;;;;;;;5116839;28;20301;-58
2022/05/22 03:57:35;;;;;;;1.10;1.10;;;;;;;;;;5114564;27;20235;-57
2022/05/22 04:00:24;;;;;;;0.73;0.70;;;;;;;;;;5114069;27;20271;-57
2022/05/22 04:03:11;;;;;;;0.90;0.90;;;;;;;;;;5117637;27;20223;-57
2022/05/22 04:05:58;;;;;;;1.13;1.03;;;;;;;;;;5117721;27;20322;-58
2022/05/22 04:08:44;;;;;;;1.00;1.00;;;;;;;;;;5119332;27;20669;-57
2022/05/22 04:11:33;;;;;;;1.20;1.10;;;;;;;;;;5113187;27;20283;-57
2022/05/22 04:14:20;;;;;;;0.77;0.77;;;;;;;;;;5121674;27;20282;-58
2022/05/22 04:17:06;;;;;;;1.13;1.00;;;;;;;;;;5121987;27;20248;-57
2022/05/22 04:19:53;;;;;;;0.70;0.70;;;;;;;;;;5116235;27;20309;-57
2022/05/22 04:25:41;;;;;;;0.97;0.87;;;;;;;;;;5117547;27;20664;-58
2022/05/22 04:28:31;;;;;;;0.87;0.87;;;;;;;;;;5116699;27;20239;-57
2022/05/22 04:31:17;;;;;;;1.00;1.00;;;;;;;;;;5123291;27;20206;-58
2022/05/22 04:34:04;;;;;;;0.73;0.73;;;;;;;;;;5117506;27;20249;-58
2022/05/22 04:36:51;;;;;;;0.90;0.90;;;;;;;;;;5117402;27;20236;-57
2022/05/22 04:39:38;;;;;;;0.80;0.80;;;;;;;;;;5114978;27;20257;-57
2022/05/22 04:42:25;;;;;;;0.77;0.77;;;;;;;;;;5115056;27;20290;-57
2022/05/22 04:45:14;;;;;;;0.90;0.90;;;;;;;;;;5118173;27;20367;-57
2022/05/22 04:48:01;;;;;;;0.93;0.90;;;;;;;;;;5115927;27;20695;-58
2022/05/22 04:50:49;;;;;;;0.80;0.80;;;;;;;;;;5119341;27;20232;-57
2022/05/22 04:53:36;;;;;;;0.80;0.80;;;;;;;;;;5119136;27;20226;-57
2022/05/22 04:56:23;;;;;;;0.80;0.80;;;;;;;;;;5115132;27;20194;-57
2022/05/22 04:59:10;;;;;;;0.83;0.83;;;;;;;;;;5116759;27;20211;-57
2022/05/22 05:01:58;;;;;;;0.80;0.80;;;;;;;;;;5117161;27;20209;-58
2022/05/22 05:04:45;;;;;;;1.00;0.97;;;;;;;;;;5121114;27;20237;-57
2022/05/22 05:07:32;;;;;;;0.80;0.80;;;;;;;;;;5118300;27;20271;-57
2022/05/22 05:10:19;;;;;;;0.90;0.90;;;;;;;;;;5116023;27;20211;-58
2022/05/22 05:13:06;;;;;;;0.70;0.70;;;;;;;;;;5117387;27;20371;-58
2022/05/22 05:16:01;;;;;;;1.13;1.00;;;;;;;;;;5116914;27;21016;-57
2022/05/22 05:18:50;;;;;;;0.80;0.80;;;;;;;;;;5111566;27;20255;-58
2022/05/22 05:21:37;;;;;;;0.90;0.90;;;;;;;;;;5116198;27;20683;-57
2022/05/22 05:24:24;;;;;;;0.93;0.93;;;;;;;;;;5116661;27;20304;-57
2022/05/22 05:27:10;;;;;;;1.10;0.90;;;;;;;;;;5113968;27;20327;-58
2022/05/22 05:29:57;;;;;;;0.60;0.60;;;;;;;;;;5117315;27;20334;-57
2022/05/22 05:32:44;;;;;;;0.83;0.70;;;;;;;;;;5114555;27;20262;-57
2022/05/22 05:35:33;;;;;;;0.87;0.83;;;;;;;;;;5112218;27;20211;-57
2022/05/22 05:38:19;;;;;;;1.80;1.17;;;;;;;;;;5116731;27;20298;-57
2022/05/22 05:41:07;;;;;;;0.77;0.70;;;;;;;;;;5117848;27;20328;-57
2022/05/22 05:43:54;;;;;;;1.20;1.10;;;;;;;;;;5115804;27;20210;-58
2022/05/22 05:46:46;;;;;;;1.77;0.90;;;;;;;;;;5114369;27;20242;-57
2022/05/22 05:49:32;;;;;;;1.13;1.13;;;;;;;;;;5117906;27;20269;-59
2022/05/22 05:52:21;;;;;;;0.80;0.80;;;;;;;;;;5115428;27;20670;-58
2022/05/22 05:55:08;;;;;;;0.90;0.90;;;;;;;;;;5114735;27;20206;-58
2022/05/22 05:57:56;;;;;;;0.80;0.80;;;;;;;;;;5116940;27;20681;-57
2022/05/22 06:00:44;;;;;;;1.07;1.00;;;;;;;;;;5114828;27;20655;-58
2022/05/22 06:03:31;;;;;;;0.90;0.90;;;;;;;;;;5112865;27;20223;-57
2022/05/22 06:06:18;;;;;;;1.10;1.10;;;;;;;;;;5112029;27;20253;-57
2022/05/22 06:09:07;;;;;;;1.10;1.10;;;;;;;;;;5116881;27;20719;-57
2022/05/22 06:11:54;;;;;;;1.03;1.00;;;;;;;;;;5112328;27;20287;-58
2022/05/22 06:14:41;;;;;;;0.83;0.80;;;;;;;;;;5120612;27;20262;-57
2022/05/22 06:17:32;;;;;;;1.13;1.10;;;;;;;;;;5117189;27;20283;-57
2022/05/22 06:20:19;;;;;;;1.27;1.00;;;;;;;;;;5111665;27;20275;-58
2022/05/22 06:23:06;;;;;;;0.93;0.90;;;;;;;;;;5116349;27;20413;-57
2022/05/22 06:25:55;;;;;;;0.70;0.70;;;;;;;;;;5114474;27;20290;-57
2022/05/22 06:28:42;;;;;;;1.10;1.00;;;;;;;;;;5109581;27;20216;-57
2022/05/22 06:31:33;;;;;;;0.77;0.77;;;;;;;;;;5115416;27;20310;-57
2022/05/22 06:34:22;;;;;;;0.77;0.77;;;;;;;;;;5115056;27;20362;-57
2022/05/22 06:37:11;;;;;;;0.70;0.70;;;;;;;;;;5114289;27;20206;-57
2022/05/22 06:39:58;;;;;;;1.30;1.20;;;;;;;;;;5112238;27;20615;-57
2022/05/22 06:42:47;;;;;;;1.03;1.03;;;;;;;;;;5110054;27;20303;-57
2022/05/22 06:45:33;;;;;;;0.63;0.63;;;;;;;;;;5117844;27;20281;-58
2022/05/22 06:48:20;;;;;;;1.00;1.00;;;;;;;;;;5113660;27;20689;-58
2022/05/22 06:51:07;;;;;;;0.97;0.93;;;;;;;;;;5111552;27;20296;-58
2022/05/22 06:53:55;;;;;;;0.93;0.90;;;;;;;;;;5114462;27;20232;-58
2022/05/22 06:56:41;;;;;;;1.10;1.03;;;;;;;;;;5114558;27;20229;-57
2022/05/22 06:59:30;;;;;;;1.10;1.00;;;;;;;;;;5113758;27;20259;-58
2022/05/22 07:02:17;;;;;;;0.80;0.80;;;;;;;;;;5114449;27;20507;-57
2022/05/22 07:05:05;;;;;;;0.80;0.80;;;;;;;;;;5112591;27;20215;-57
2022/05/22 07:07:52;;;;;;;0.80;0.80;;;;;;;;;;5113938;27;20202;-57
2022/05/22 07:13:43;;;;;;;1.10;1.10;;;;;;;;;;5109836;27;20211;-64
2022/05/22 07:16:32;;;;;;;0.90;0.90;;;;;;;;;;5110091;27;20595;-57
2022/05/22 07:19:19;;;;;;;1.63;1.10;;;;;;;;;;5112070;27;20701;-58
2022/05/22 07:22:06;;;;;;;0.90;0.90;;;;;;;;;;5112027;27;20210;-57
2022/05/22 07:24:54;;;;;;;1.00;1.00;;;;;;;;;;5110698;27;20222;-57
2022/05/22 07:27:41;;;;;;;1.00;1.00;;;;;;;;;;5114079;27;20253;-57
2022/05/22 07:30:28;;;;;;;0.90;0.90;;;;;;;;;;5111553;27;20308;-57
2022/05/22 07:33:17;;;;;;;0.97;0.90;;;;;;;;;;5109361;28;20335;-57
2022/05/22 07:36:05;;;;;;;0.93;0.93;;;;;;;;;;5119154;27;20204;-57
2022/05/22 07:38:52;;;;;;;0.90;0.90;;;;;;;;;;5112337;28;20267;-57
2022/05/22 07:41:39;;;;;;;0.93;0.90;;;;;;;;;;5113112;27;20275;-58
2022/05/22 07:44:26;;;;;;;1.10;1.00;;;;;;;;;;5111655;27;20288;-57
2022/05/22 07:47:13;;;;;;;1.33;1.23;;;;;;;;;;5116677;28;20320;-57
2022/05/22 07:50:20;;;;;;;0.70;0.70;;;;;;;;;;5111803;28;20239;-58
2022/05/22 07:53:08;;;;;;;1.27;0.90;;;;;;;;;;5111362;28;20267;-57
2022/05/22 07:55:55;;;;;;;0.80;0.80;;;;;;;;;;5119686;28;20237;-57
2022/05/22 07:58:41;;;;;;;1.10;1.00;;;;;;;;;;5108944;28;20241;-57
2022/05/22 08:01:28;;;;;;;1.17;1.17;;;;;;;;;;5112318;28;20205;-58
2022/05/22 08:04:15;;;;;;;0.83;0.83;;;;;;;;;;5115341;28;20314;-58
2022/05/22 08:07:04;;;;;;;0.90;0.90;;;;;;;;;;5118677;28;20205;-57
2022/05/22 08:09:51;;;;;;;0.70;0.70;;;;;;;;;;5114589;28;20197;-58
2022/05/22 08:12:39;;;;;;;1.07;0.60;;;;;;;;;;5115991;28;20286;-57
2022/05/22 08:15:30;;;;;;;2.67;1.00;;;;;;;;;;5114025;28;20236;-57
2022/05/22 08:18:17;;;;;;;0.87;0.80;;;;;;;;;;5115848;28;20208;-58
2022/05/22 08:21:03;;;;;;;1.63;0.70;;;;;;;;;;5113368;28;20751;-58
2022/05/22 08:23:52;;;;;;;0.80;0.80;;;;;;;;;;5114172;28;20743;-57
2022/05/22 08:26:39;;;;;;;0.70;0.70;;;;;;;;;;5109532;28;20772;-57
2022/05/22 08:29:25;;;;;;;1.00;1.00;;;;;;;;;;5111898;28;20691;-57
2022/05/22 08:32:12;;;;;;;1.13;1.00;;;;;;;;;;5113886;28;20294;-57
2022/05/22 08:34:59;;;;;;;0.93;0.87;;;;;;;;;;5113492;28;20284;-57
2022/05/22 08:37:46;;;;;;;1.07;1.03;;;;;;;;;;5115315;28;20288;-57
2022/05/22 08:40:43;;;;;;;1.20;1.00;;;;;;;;;;5110729;28;20665;-57
2022/05/22 08:43:33;;;;;;;0.93;0.93;;;;;;;;;;5121506;27;20212;-57
2022/05/22 08:46:28;;;;;;;1.07;1.00;;;;;;;;;;5114898;27;20239;-57
2022/05/22 08:49:22;;;;;;;1.03;0.87;;;;;;;;;;5121505;27;20698;-57
2022/05/22 08:52:17;;;;;;;0.90;0.90;;;;;;;;;;5119926;27;20592;-57
2022/05/22 08:55:09;;;;;;;1.03;1.03;;;;;;;;;;5116376;27;20260;-58
2022/05/22 09:01:12;;;;;;;1.00;1.00;;;;;;;;;;5116851;27;20267;-58
2022/05/22 09:04:06;;;;;;;0.73;0.73;;;;;;;;;;5119696;27;20215;-57
2022/05/22 09:07:03;;;;;;;1.00;1.00;;;;;;;;;;5112354;27;20305;-57
2022/05/22 09:09:56;;;;;;;0.80;0.80;;;;;;;;;;5118332;27;20706;-57
2022/05/22 09:12:53;;;;;;;0.80;0.80;;;;;;;;;;5119787;27;20211;-57
2022/05/22 09:15:46;;;;;;;0.80;0.80;;;;;;;;;;5120158;27;20693;-57
2022/05/22 09:18:35;;;;;;;0.70;0.70;;;;;;;;;;5117542;27;20206;-57
2022/05/22 09:21:31;;;;;;;1.00;1.00;;;;;;;;;;5111441;27;20264;-59
2022/05/22 09:24:31;;;;;;;0.90;0.90;;;;;;;;;;5116784;27;20211;-57
2022/05/22 09:27:32;;;;;;;0.90;0.90;;;;;;;;;;5117063;27;20332;-57
2022/05/22 09:30:23;;;;;;;0.63;0.63;;;;;;;;;;5115973;27;20324;-57
2022/05/22 09:33:18;;;;;;;0.90;0.90;;;;;;;;;;5113519;27;20209;-57
2022/05/22 09:36:16;;;;;;;0.90;0.90;;;;;;;;;;5116414;27;20202;-57
2022/05/22 09:39:16;;;;;;;0.97;0.97;;;;;;;;;;5119116;27;20563;-57
2022/05/22 09:42:13;;;;;;;0.90;0.90;;;;;;;;;;5117262;27;20628;-57
2022/05/22 09:45:14;;;;;;;1.60;1.10;;;;;;;;;;5117361;27;20274;-57
2022/05/22 09:48:17;;;;;;;1.00;1.00;;;;;;;;;;5116687;27;20811;-57
2022/05/22 09:51:12;;;;;;;0.70;0.70;;;;;;;;;;5115989;27;20213;-57
2022/05/22 09:54:11;;;;;;;0.80;0.80;;;;;;;;;;5118699;27;20305;-58
2022/05/22 09:57:07;;;;;;;0.70;0.70;;;;;;;;;;5117176;27;20207;-57
2022/05/22 10:00:05;;;;;;;0.80;0.80;;;;;;;;;;5116452;27;20208;-57
2022/05/22 10:03:01;;;;;;;1.17;1.10;;;;;;;;;;5115770;27;20213;-57
2022/05/22 10:06:00;;;;;;;1.17;1.07;;;;;;;;;;5119746;27;20335;-57
2022/05/22 10:08:57;;;;;;;0.80;0.80;;;;;;;;;;5124543;27;20206;-57
2022/05/22 10:12:07;;;;;;;0.90;0.90;;;;;;;;;;5116014;27;20354;-58
2022/05/22 10:15:08;;;;;;;1.00;1.00;;;;;;;;;;5109911;27;20246;-57
2022/05/22 10:18:08;;;;;;;0.80;0.80;;;;;;;;;;5118793;27;20304;-56
2022/05/22 10:21:07;;;;;;;1.00;0.93;;;;;;;;;;5114797;27;20211;-56
2022/05/22 10:24:12;;;;;;;1.20;1.00;;;;;;;;;;5116573;27;20314;-57
2022/05/22 10:27:10;;;;;;;1.53;1.10;;;;;;;;;;5114586;27;20297;-57
2022/05/22 10:30:00;;;;;;;1.30;1.20;;;;;;;;;;5113232;27;20287;-57
2022/05/22 10:32:54;;;;;;;0.83;0.83;;;;;;;;;;5111685;27;20209;-57
2022/05/22 10:35:47;;;;;;;0.80;0.80;;;;;;;;;;5111509;27;20282;-57
2022/05/22 10:38:39;;;;;;;1.20;1.13;;;;;;;;;;5108862;27;20270;-57
2022/05/22 10:44:36;;;;;;;1.10;1.00;;;;;;;;;;5115650;27;20203;-57
2022/05/22 10:47:27;;;;;;;1.00;1.00;;;;;;;;;;5116481;27;20290;-56
2022/05/22 10:50:19;;;;;;;1.00;1.00;;;;;;;;;;5115089;27;20201;-57
2022/05/22 10:53:25;;;;;;;1.50;0.97;;;;;;;;;;5116747;27;20260;-57
2022/05/22 10:56:22;;;;;;;1.47;1.00;;;;;;;;;;5117307;27;20246;-57
2022/05/22 10:59:20;;;;;;;1.53;1.30;;;;;;;;;;5112236;27;20234;-57
2022/05/22 11:02:17;;;;;;;1.27;1.17;;;;;;;;;;5112624;27;20266;-57
2022/05/22 11:05:16;;;;;;;6.07;1.10;;;;;;;;;;5109338;27;20684;-57
2022/05/22 11:08:03;;;;;;;1.13;1.07;;;;;;;;;;5113904;27;20229;-57
2022/05/22 11:10:50;;;;;;;1.13;1.00;;;;;;;;;;5114768;27;20829;-56
2022/05/22 11:13:39;;;;;;;1.00;1.00;;;;;;;;;;5115026;27;20250;-57
2022/05/22 11:16:28;;;;;;;1.20;1.10;;;;;;;;;;5113619;27;20334;-57
2022/05/22 11:19:21;;;;;;;1.20;1.10;;;;;;;;;;5110279;27;20213;-58
2022/05/22 11:22:27;;;;;;;2.60;1.30;;;;;;;;;;5114546;27;20331;-57
2022/05/22 11:25:36;;;;;;;0.90;0.90;;;;;;;;;;5107398;27;20205;-56
2022/05/22 11:28:45;;;;;;;1.10;1.10;;;;;;;;;;5111346;27;20288;-57
2022/05/22 11:31:56;;;;;;;2.13;1.10;;;;;;;;;;5120180;27;20820;-57
2022/05/22 11:35:08;;;;;;;1.40;1.30;;;;;;;;;;5114784;27;20247;-57
2022/05/22 11:38:06;;;;;;;1.63;1.30;;;;;;;;;;5116121;27;20212;-57
2022/05/22 11:41:03;;;;;;;0.90;0.90;;;;;;;;;;5114768;27;20290;-57
2022/05/22 11:44:20;;;;;;;0.90;0.90;;;;;;;;;;5107911;27;20287;-57
2022/05/22 11:47:26;;;;;;;1.27;1.17;;;;;;;;;;5083433;27;20253;-58
2022/05/22 11:50:27;;;;;;;1.30;1.20;;;;;;;;;;5115963;28;20315;-58
2022/05/22 11:53:43;;;;;;;1.17;1.07;;;;;;;;;;5112294;28;20812;-57
2022/05/22 11:56:46;;;;;;;2.87;1.13;;;;;;;;;;5111488;28;20198;-57
2022/05/22 11:59:52;;;;;;;1.27;1.20;;;;;;;;;;5114082;28;20271;-57
2022/05/22 12:02:52;;;;;;;1.63;1.13;;;;;;;;;;5117914;28;21002;-57
2022/05/22 12:05:52;;;;;;;1.60;1.50;;;;;;;;;;5113714;28;20294;-57
2022/05/22 12:08:56;;;;;;;1.33;1.23;;;;;;;;;;5115017;28;20296;-57
2022/05/22 12:12:04;;;;;;;1.20;1.00;;;;;;;;;;5112718;28;20214;-57
2022/05/22 12:15:03;;;;;;;1.10;1.07;;;;;;;;;;5115889;28;20669;-57
2022/05/22 12:17:55;;;;;;;1.03;1.00;;;;;;;;;;5115986;28;20216;-57
2022/05/22 12:20:47;;;;;;;1.40;1.30;;;;;;;;;;5115188;27;20275;-57
2022/05/22 12:23:41;;;;;;;1.60;1.13;;;;;;;;;;5116566;27;20225;-57
2022/05/22 12:26:30;;;;;;;1.47;1.37;;;;;;;;;;5114677;27;20330;-57
2022/05/22 12:29:25;;;;;;;1.67;1.10;;;;;;;;;;5116286;27;20191;-59
2022/05/22 12:32:20;;;;;;;1.23;1.23;;;;;;;;;;5116029;27;20205;-57
2022/05/22 12:35:08;;;;;;;1.30;1.20;;;;;;;;;;5119861;27;20204;-57
2022/05/22 12:37:58;;;;;;;1.00;1.00;;;;;;;;;;5115361;27;20211;-57
2022/05/22 12:40:51;;;;;;;0.90;0.90;;;;;;;;;;5117000;27;20234;-57
2022/05/22 12:43:40;;;;;;;1.20;1.20;;;;;;;;;;5116068;27;20358;-58
2022/05/22 12:46:28;;;;;;;0.83;0.83;;;;;;;;;;5120692;27;20240;-57
2022/05/22 12:49:23;;;;;;;1.00;1.00;;;;;;;;;;5119919;27;20687;-58
2022/05/22 12:52:28;;;;;;;1.00;1.00;;;;;;;;;;5115332;27;20283;-57
2022/05/22 12:55:22;;;;;;;1.53;0.97;;;;;;;;;;5118176;27;20690;-57
2022/05/22 12:58:30;;;;;;;1.30;1.20;;;;;;;;;;5113869;27;20210;-57
2022/05/22 13:01:27;;;;;;;0.97;0.97;;;;;;;;;;5113176;27;20208;-57
2022/05/22 13:04:26;;;;;;;1.27;1.17;;;;;;;;;;5114876;27;20280;-57
2022/05/22 13:07:17;;;;;;;0.70;0.70;;;;;;;;;;5118708;27;20282;-57
2022/05/22 13:10:20;;;;;;;1.10;1.10;;;;;;;;;;5118257;27;20202;-58
2022/05/22 13:13:08;;;;;;;1.30;1.20;;;;;;;;;;5119579;27;20211;-57
2022/05/22 13:16:01;;;;;;;1.13;1.10;;;;;;;;;;5120507;27;20290;-58
2022/05/22 13:18:50;;;;;;;1.27;1.17;;;;;;;;;;5120614;27;20668;-57
2022/05/22 13:21:40;;;;;;;1.00;1.00;;;;;;;;;;5113890;27;20230;-62
2022/05/22 13:24:30;;;;;;;1.20;1.10;;;;;;;;;;5118802;27;20215;-57
2022/05/22 13:27:23;;;;;;;1.03;1.03;;;;;;;;;;5116398;27;20278;-57
2022/05/22 13:30:21;;;;;;;0.97;0.97;;;;;;;;;;5116592;27;20203;-57
2022/05/22 13:33:11;;;;;;;0.97;0.97;;;;;;;;;;5118082;27;20251;-57
2022/05/22 13:36:00;;;;;;;1.17;1.03;;;;;;;;;;5109940;27;20216;-57
2022/05/22 13:38:53;;;;;;;1.33;1.23;;;;;;;;;;5122892;27;20210;-64
2022/05/22 13:42:07;;;;;;;1.20;1.10;;;;;;;;;;5125121;27;20238;-56
2022/05/22 13:45:32;;;;;;;1.27;1.17;;;;;;;;;;5115539;27;20323;-57
2022/05/22 13:48:43;;;;;;;1.07;1.07;;;;;;;;;;5114124;27;20270;-56
2022/05/22 13:55:00;;;;;;;1.23;1.17;;;;;;;;;;5118997;27;20203;-57
2022/05/22 13:57:57;;;;;;;1.10;1.00;;;;;;;;;;5114765;27;20280;-56
2022/05/22 14:00:48;;;;;;;1.10;1.10;;;;;;;;;;5111192;27;20212;-57
2022/05/22 14:03:39;;;;;;;1.30;1.20;;;;;;;;;;5118323;27;20210;-58
2022/05/22 14:06:29;;;;;;;1.20;1.10;;;;;;;;;;5117314;27;20665;-57
2022/05/22 14:09:20;;;;;;;0.93;0.90;;;;;;;;;;5108532;27;20854;-57
2022/05/22 14:12:12;;;;;;;1.20;1.20;;;;;;;;;;5109391;27;20205;-58
2022/05/22 14:15:13;;;;;;;1.30;1.20;;;;;;;;;;5116974;27;20685;-57
2022/05/22 14:18:00;;;;;;;1.03;1.03;;;;;;;;;;5116171;27;20208;-58
2022/05/22 14:20:49;;;;;;;1.20;1.10;;;;;;;;;;5121338;27;20680;-58
2022/05/22 14:26:42;;;;;;;1.00;0.97;;;;;;;;;;5114494;27;20667;-58
2022/05/22 14:29:32;;;;;;;1.13;1.03;;;;;;;;;;5118298;27;20607;-57
2022/05/22 14:32:21;;;;;;;0.93;0.93;;;;;;;;;;5117113;27;20220;-58
2022/05/22 14:35:14;;;;;;;1.00;1.00;;;;;;;;;;5112733;27;20400;-57
2022/05/22 14:38:12;;;;;;;1.10;1.10;;;;;;;;;;5111386;27;20200;-57
2022/05/22 14:41:01;;;;;;;1.27;1.17;;;;;;;;;;5114974;27;20239;-57
2022/05/22 14:43:53;;;;;;;1.00;1.00;;;;;;;;;;5124508;27;20234;-57
2022/05/22 14:46:46;;;;;;;1.00;1.00;;;;;;;;;;5116968;27;20323;-57
2022/05/22 14:49:38;;;;;;;1.20;1.10;;;;;;;;;;5115711;27;20297;-58
2022/05/22 14:52:30;;;;;;;0.90;0.90;;;;;;;;;;5119350;27;21163;-57
2022/05/22 14:55:21;;;;;;;0.90;0.90;;;;;;;;;;5118037;27;20687;-57
2022/05/22 14:58:15;;;;;;;0.97;0.97;;;;;;;;;;5114653;27;20200;-60
2022/05/22 15:01:10;;;;;;;1.20;1.07;;;;;;;;;;5116260;27;20211;-57
2022/05/22 15:04:01;;;;;;;1.27;1.10;;;;;;;;;;5118060;27;20207;-57
2022/05/22 15:06:55;;;;;;;1.57;1.17;;;;;;;;;;5116023;27;20290;-57
2022/05/22 15:09:52;;;;;;;1.23;1.10;;;;;;;;;;5117657;27;20215;-57
2022/05/22 15:12:40;;;;;;;1.20;1.20;;;;;;;;;;5115141;27;20215;-57
2022/05/22 15:15:29;;;;;;;1.13;1.13;;;;;;;;;;5114012;27;20219;-57
2022/05/22 15:18:21;;;;;;;0.90;0.90;;;;;;;;;;5110941;27;20223;-57
2022/05/22 15:21:09;;;;;;;1.07;0.90;;;;;;;;;;5118372;27;20294;-57
2022/05/22 15:27:05;;;;;;;1.17;1.17;;;;;;;;;;5123742;27;20228;-57
2022/05/22 15:29:52;;;;;;;1.10;1.00;;;;;;;;;;5115956;27;20319;-57
2022/05/22 15:32:42;;;;;;;1.07;1.07;;;;;;;;;;5119367;27;20224;-57
2022/05/22 15:35:29;;;;;;;0.97;0.90;;;;;;;;;;5115203;27;20688;-58
2022/05/22 15:38:23;;;;;;;1.00;1.00;;;;;;;;;;5112578;27;20302;-57
2022/05/22 15:41:25;;;;;;;0.97;0.97;;;;;;;;;;5116476;27;20199;-57
2022/05/22 15:44:29;;;;;;;0.97;0.90;;;;;;;;;;5117182;27;20198;-57
2022/05/22 15:47:21;;;;;;;1.00;0.90;;;;;;;;;;5091720;28;20705;-57
2022/05/22 15:53:22;;;;;;;0.77;0.77;;;;;;;;;;5073425;28;20264;-57
2022/05/22 15:56:11;;;;;;;0.87;0.87;;;;;;;;;;5088133;28;20243;-57
2022/05/22 15:58:58;;;;;;;0.80;0.80;;;;;;;;;;5092786;28;20551;-58
2022/05/22 16:01:46;;;;;;;1.20;0.80;;;;;;;;;;5090942;28;20208;-57
2022/05/22 16:04:33;;;;;;;0.80;0.80;;;;;;;;;;5086314;28;20202;-57
2022/05/22 16:07:20;;;;;;;1.40;1.30;;;;;;;;;;5087418;28;20284;-57
2022/05/22 16:10:10;;;;;;;0.90;0.90;;;;;;;;;;5087026;28;20248;-57
2022/05/22 16:12:57;;;;;;;0.80;0.80;;;;;;;;;;5074869;28;20682;-57
2022/05/22 16:15:44;;;;;;;1.43;1.20;;;;;;;;;;5085392;28;20244;-56
2022/05/22 16:18:33;;;;;;;1.20;1.10;;;;;;;;;;5082726;28;20230;-62
2022/05/22 16:21:22;;;;;;;0.93;0.93;;;;;;;;;;5084057;28;20675;-63
2022/05/22 16:24:09;;;;;;;1.07;1.07;;;;;;;;;;5081900;28;20646;-56
2022/05/22 16:26:58;;;;;;;1.23;1.13;;;;;;;;;;5092967;28;20672;-57
2022/05/22 16:29:45;;;;;;;1.00;0.73;;;;;;;;;;5088867;28;20225;-57
2022/05/22 16:32:32;;;;;;;1.00;1.00;;;;;;;;;;5086925;28;20290;-58
2022/05/22 16:35:22;;;;;;;0.80;0.80;;;;;;;;;;5089165;28;20264;-57
2022/05/22 16:38:10;;;;;;;1.00;0.90;;;;;;;;;;5090034;28;20295;-56
2022/05/22 16:40:57;;;;;;;0.97;0.97;;;;;;;;;;5089028;28;20284;-56
2022/05/22 16:43:45;;;;;;;1.37;1.23;;;;;;;;;;5084435;28;20346;-57
2022/05/22 16:46:32;;;;;;;0.60;0.60;;;;;;;;;;5100353;27;21039;-57
2022/05/22 16:55:37;;;;;;;1.00;0.90;;;;;;;;;;5123869;27;20209;-57
2022/05/22 16:58:27;;;;;;;1.10;1.00;;;;;;;;;;5119754;27;20201;-57
2022/05/22 17:01:16;;;;;;;0.90;0.90;;;;;;;;;;5126658;27;20202;-57
2022/05/22 17:04:04;;;;;;;0.77;0.77;;;;;;;;;;5129437;27;20286;-57
2022/05/22 17:06:55;;;;;;;1.13;1.03;;;;;;;;;;5120530;27;20220;-57
2022/05/22 17:09:45;;;;;;;0.93;0.93;;;;;;;;;;5113957;27;20205;-58
2022/05/22 17:12:32;;;;;;;0.73;0.73;;;;;;;;;;5116826;27;20306;-57
2022/05/22 17:15:19;;;;;;;0.70;0.70;;;;;;;;;;5122591;27;20285;-57
2022/05/22 17:18:07;;;;;;;1.10;1.10;;;;;;;;;;5120652;27;20289;-56
2022/05/22 17:20:54;;;;;;;0.80;0.80;;;;;;;;;;5124452;27;20206;-57
2022/05/22 17:23:42;;;;;;;0.90;0.90;;;;;;;;;;5118771;27;20323;-56
2022/05/22 17:26:30;;;;;;;0.73;0.73;;;;;;;;;;5121414;27;20219;-57
2022/05/22 17:29:17;;;;;;;0.73;0.73;;;;;;;;;;5117703;27;20249;-56
2022/05/22 17:32:06;;;;;;;0.83;0.83;;;;;;;;;;5117849;27;21393;-56
2022/05/22 17:34:54;;;;;;;0.73;0.73;;;;;;;;;;5111568;27;20210;-57
2022/05/22 17:37:43;;;;;;;0.80;0.80;;;;;;;;;;5116013;27;20217;-57
2022/05/22 17:40:33;;;;;;;0.90;0.90;;;;;;;;;;5117371;27;20238;-57